Time;durP1;ratioP1;P1;durP2;ratioP2;P2;SDS_P1;SDS_P2;PMS_P1;PMS_P2;Temp;Humidity;BMP_temperature;BMP_pressure;BME280_temperature;BME280_humidity;BME280_pressure;Samples;Min_cycle;Max_cycle;Signal;HPM_P1;HPM_P2
2021/12/18 00:02:01;;;;;;;;;;;7.60;99.90;;;;;;5074548;28;20457;-42
2021/12/18 00:04:28;;;;;;;;;;;7.60;99.90;;;;;;5075378;28;20418;-42
2021/12/18 00:06:55;;;;;;;;;;;7.60;99.90;;;;;;5072185;28;20021;-42
2021/12/18 00:09:22;;;;;;;;;;;7.60;99.90;;;;;;5108483;28;19924;-41
2021/12/18 00:11:50;;;;;;;;;;;7.60;99.90;;;;;;5074608;28;19924;-41
2021/12/18 00:14:17;;;;;;;;;;;7.60;99.90;;;;;;5071607;28;19932;-41
2021/12/18 00:16:44;;;;;;;;;;;7.60;99.90;;;;;;5077142;28;19982;-41
2021/12/18 00:19:11;;;;;;;;;;;7.60;99.90;;;;;;5081513;28;19951;-41
2021/12/18 00:21:37;;;;;;;;;;;7.60;99.90;;;;;;5074328;28;19928;-43
2021/12/18 00:24:05;;;;;;;;;;;7.60;99.90;;;;;;5074251;28;19925;-42
2021/12/18 00:26:31;;;;;;;;;;;7.60;99.90;;;;;;5074394;28;20338;-42
2021/12/18 00:28:59;;;;;;;;;;;7.60;99.90;;;;;;5075298;28;19933;-42
2021/12/18 00:31:26;;;;;;;;;;;7.50;99.90;;;;;;5075315;28;19931;-42
2021/12/18 00:33:53;;;;;;;;;;;7.50;99.90;;;;;;5069767;28;19931;-41
2021/12/18 00:36:20;;;;;;;;;;;7.50;99.90;;;;;;5073913;28;19925;-42
2021/12/18 00:38:47;;;;;;;;;;;7.50;99.90;;;;;;5075671;28;19993;-41
2021/12/18 00:41:27;;;;;;;;;;;7.50;99.90;;;;;;5072673;28;19963;-41
2021/12/18 00:44:03;;;;;;;;;;;7.40;99.90;;;;;;5074305;28;19931;-41
2021/12/18 00:46:32;;;;;;;;;;;7.40;99.90;;;;;;5073611;28;20323;-41
2021/12/18 00:48:59;;;;;;;;;;;7.30;99.90;;;;;;5074859;28;20007;-42
2021/12/18 00:51:26;;;;;;;;;;;7.30;99.90;;;;;;5055513;28;19974;-41
2021/12/18 00:53:53;;;;;;;;;;;7.30;99.90;;;;;;5063529;28;20017;-41
2021/12/18 00:56:19;;;;;;;;;;;7.20;99.90;;;;;;5074524;28;19983;-41
2021/12/18 00:58:48;;;;;;;;;;;7.30;99.90;;;;;;5075252;28;19924;-41
2021/12/18 01:01:14;;;;;;;;;;;7.30;99.90;;;;;;5074652;28;19931;-41
2021/12/18 01:03:44;;;;;;;;;;;7.20;99.90;;;;;;5070450;28;19925;-41
2021/12/18 01:06:11;;;;;;;;;;;7.20;99.90;;;;;;5072975;28;20023;-42
2021/12/18 01:08:38;;;;;;;;;;;7.30;99.90;;;;;;5073654;28;19932;-41
2021/12/18 01:11:28;;;;;;;;;;;7.20;99.90;;;;;;5073527;28;19928;-42
2021/12/18 01:14:09;;;;;;;;;;;7.20;99.90;;;;;;5073752;28;19928;-41
2021/12/18 01:16:45;;;;;;;;;;;7.30;99.90;;;;;;5073751;28;19924;-41
2021/12/18 01:24:41;;;;;;;;;;;7.20;99.90;;;;;;5073969;28;19924;-41
2021/12/18 01:27:08;;;;;;;;;;;7.30;99.90;;;;;;5074736;28;19968;-40
2021/12/18 01:29:35;;;;;;;;;;;7.30;99.90;;;;;;5072571;28;19967;-41
2021/12/18 01:32:02;;;;;;;;;;;7.30;99.90;;;;;;5074435;28;19975;-41
2021/12/18 01:34:30;;;;;;;;;;;7.30;99.90;;;;;;5072309;28;20348;-42
2021/12/18 01:36:56;;;;;;;;;;;7.30;99.90;;;;;;5073873;28;20373;-40
2021/12/18 01:39:23;;;;;;;;;;;7.30;99.90;;;;;;5074296;28;19924;-41
2021/12/18 01:42:07;;;;;;;;;;;7.30;99.90;;;;;;5072801;28;20017;-40
2021/12/18 01:53:04;;;;;;;;;;;7.30;99.90;;;;;;5009492;28;19926;-40
2021/12/18 01:55:31;;;;;;;;;;;7.20;99.90;;;;;;5041842;28;19925;-40
2021/12/18 01:57:58;;;;;;;;;;;7.20;99.90;;;;;;5072332;28;19924;-41
2021/12/18 02:00:25;;;;;;;;;;;7.20;99.90;;;;;;5076042;28;19979;-42
2021/12/18 02:02:52;;;;;;;;;;;7.20;99.90;;;;;;5069768;28;19970;-41
2021/12/18 02:05:20;;;;;;;;;;;7.20;99.90;;;;;;5064450;28;20465;-40
2021/12/18 02:07:47;;;;;;;;;;;7.20;99.90;;;;;;5073595;28;20289;-41
2021/12/18 02:10:19;;;;;;;;;;;7.20;99.90;;;;;;5072163;28;19924;-41
2021/12/18 02:12:47;;;;;;;;;;;7.20;99.90;;;;;;5073780;28;19925;-41
2021/12/18 02:20:45;;;;;;;;;;;7.10;99.90;;;;;;5068508;28;19925;-41
2021/12/18 02:23:12;;;;;;;;;;;7.10;99.90;;;;;;5052656;28;19932;-40
2021/12/18 02:25:39;;;;;;;;;;;7.00;99.90;;;;;;5052735;28;19929;-41
2021/12/18 02:28:11;;;;;;;;;;;7.00;99.90;;;;;;5068969;28;20364;-40
2021/12/18 02:30:37;;;;;;;;;;;6.90;99.90;;;;;;5072797;28;19928;-40
2021/12/18 02:33:04;;;;;;;;;;;6.90;99.90;;;;;;5072427;28;20025;-41
2021/12/18 02:35:32;;;;;;;;;;;6.90;99.90;;;;;;5071495;28;19924;-41
2021/12/18 02:38:10;;;;;;;;;;;6.90;99.90;;;;;;5072383;28;20007;-41
2021/12/18 02:40:55;;;;;;;;;;;6.90;99.90;;;;;;5072099;28;20014;-41
2021/12/18 02:43:24;;;;;;;;;;;6.90;99.90;;;;;;5072449;28;19991;-41
2021/12/18 02:45:53;;;;;;;;;;;6.90;99.90;;;;;;5072094;28;19929;-41
2021/12/18 02:48:20;;;;;;;;;;;6.90;99.90;;;;;;5071894;28;20394;-40
2021/12/18 02:50:47;;;;;;;;;;;6.90;99.90;;;;;;5072966;28;19925;-41
2021/12/18 02:53:15;;;;;;;;;;;6.90;99.90;;;;;;5072133;28;19924;-40
2021/12/18 02:55:42;;;;;;;;;;;6.90;99.90;;;;;;5067198;28;20349;-40
2021/12/18 02:58:08;;;;;;;;;;;6.80;99.90;;;;;;5065179;28;19959;-42
2021/12/18 03:00:35;;;;;;;;;;;6.90;99.90;;;;;;5068406;28;19978;-41
2021/12/18 03:03:07;;;;;;;;;;;6.80;99.90;;;;;;5053063;28;19925;-41
2021/12/18 03:05:41;;;;;;;;;;;6.80;99.90;;;;;;5073076;28;19924;-40
2021/12/18 03:08:14;;;;;;;;;;;6.70;99.90;;;;;;5071564;28;19925;-41
2021/12/18 03:24:29;;;;;;;;;;;6.60;99.90;;;;;;5065456;28;20011;-40
2021/12/18 03:26:57;;;;;;;;;;;6.60;99.90;;;;;;5076201;28;19924;-40
2021/12/18 03:29:24;;;;;;;;;;;6.70;99.90;;;;;;5086094;28;20018;-40
2021/12/18 03:31:50;;;;;;;;;;;6.70;99.90;;;;;;5075984;28;20011;-40
2021/12/18 03:34:17;;;;;;;;;;;6.70;99.90;;;;;;5076688;28;19930;-40
2021/12/18 03:36:44;;;;;;;;;;;6.70;99.90;;;;;;5077031;28;19924;-41
2021/12/18 03:39:11;;;;;;;;;;;6.60;99.90;;;;;;5076037;28;20399;-41
2021/12/18 03:41:37;;;;;;;;;;;6.70;99.90;;;;;;5072245;28;19984;-41
2021/12/18 03:44:06;;;;;;;;;;;6.70;99.90;;;;;;5056803;28;19946;-40
2021/12/18 03:46:33;;;;;;;;;;;6.70;99.90;;;;;;5056595;28;19933;-41
2021/12/18 03:48:59;;;;;;;;;;;6.70;99.90;;;;;;5070856;28;19928;-41
2021/12/18 03:51:26;;;;;;;;;;;6.70;99.90;;;;;;5075450;28;19993;-40
2021/12/18 03:53:53;;;;;;;;;;;6.70;99.90;;;;;;5075989;28;20304;-41
2021/12/18 03:56:20;;;;;;;;;;;6.70;99.90;;;;;;5076365;28;19979;-41
2021/12/18 03:58:46;;;;;;;;;;;6.70;99.90;;;;;;5075537;28;19924;-41
2021/12/18 04:01:14;;;;;;;;;;;6.70;99.90;;;;;;5075382;28;19999;-40
2021/12/18 04:03:41;;;;;;;;;;;6.70;99.90;;;;;;5076137;28;19931;-41
2021/12/18 04:06:08;;;;;;;;;;;6.70;99.90;;;;;;5075546;28;19964;-41
2021/12/18 04:08:35;;;;;;;;;;;6.70;99.90;;;;;;5075736;28;20305;-40
2021/12/18 04:11:01;;;;;;;;;;;6.90;99.90;;;;;;5074560;28;19975;-40
2021/12/18 04:13:30;;;;;;;;;;;6.70;99.90;;;;;;5076075;28;19924;-41
2021/12/18 04:15:56;;;;;;;;;;;6.70;99.90;;;;;;5074361;28;19924;-40
2021/12/18 04:18:24;;;;;;;;;;;6.70;99.90;;;;;;5074757;28;19925;-40
2021/12/18 04:20:51;;;;;;;;;;;6.70;99.90;;;;;;5074827;28;19928;-41
2021/12/18 04:23:18;;;;;;;;;;;6.60;99.90;;;;;;5075870;28;20394;-40
2021/12/18 04:25:45;;;;;;;;;;;6.60;99.90;;;;;;5075843;28;19933;-41
2021/12/18 04:28:11;;;;;;;;;;;6.60;99.90;;;;;;5075751;28;19931;-40
2021/12/18 04:30:38;;;;;;;;;;;6.60;99.90;;;;;;5073755;28;19924;-40
2021/12/18 04:33:05;;;;;;;;;;;6.60;99.90;;;;;;5075671;28;20319;-41
2021/12/18 04:35:33;;;;;;;;;;;6.60;99.90;;;;;;5075129;28;19935;-41
2021/12/18 04:38:00;;;;;;;;;;;6.60;99.90;;;;;;5072857;28;19929;-40
2021/12/18 04:40:27;;;;;;;;;;;6.60;99.90;;;;;;5070633;28;19967;-41
2021/12/18 04:42:54;;;;;;;;;;;6.60;99.90;;;;;;5055588;28;20024;-41
2021/12/18 04:45:20;;;;;;;;;;;6.60;99.90;;;;;;5054411;28;20289;-41
2021/12/18 04:47:47;;;;;;;;;;;6.60;99.90;;;;;;5068228;28;19932;-41
2021/12/18 04:50:14;;;;;;;;;;;6.60;99.90;;;;;;5075287;28;19928;-41
2021/12/18 04:52:42;;;;;;;;;;;6.60;99.90;;;;;;5075548;28;19931;-41
2021/12/18 04:55:09;;;;;;;;;;;6.60;99.90;;;;;;5075509;28;19925;-40
2021/12/18 04:57:36;;;;;;;;;;;6.60;99.90;;;;;;5073778;28;19993;-41
2021/12/18 05:00:03;;;;;;;;;;;6.60;99.90;;;;;;5073009;28;19951;-40
2021/12/18 05:02:36;;;;;;;;;;;6.60;99.90;;;;;;5075047;28;19982;-40
2021/12/18 05:05:03;;;;;;;;;;;6.60;99.90;;;;;;5074297;28;19924;-41
2021/12/18 05:07:30;;;;;;;;;;;6.50;99.90;;;;;;5074336;28;19936;-41
2021/12/18 05:09:58;;;;;;;;;;;6.50;99.90;;;;;;5073244;28;19978;-41
2021/12/18 05:12:25;;;;;;;;;;;6.50;99.90;;;;;;5073481;28;19924;-40
2021/12/18 05:14:52;;;;;;;;;;;6.50;99.90;;;;;;5075054;28;19924;-41
2021/12/18 05:17:18;;;;;;;;;;;6.50;99.90;;;;;;5070395;28;20424;-41
2021/12/18 05:19:45;;;;;;;;;;;6.50;99.90;;;;;;5070592;28;19947;-41
2021/12/18 05:22:12;;;;;;;;;;;6.60;99.90;;;;;;5074085;28;19931;-41
2021/12/18 05:24:39;;;;;;;;;;;6.60;99.90;;;;;;5074798;28;19928;-41
2021/12/18 05:27:07;;;;;;;;;;;6.60;99.90;;;;;;5070270;28;20400;-41
2021/12/18 05:29:34;;;;;;;;;;;6.60;99.90;;;;;;5068648;28;20319;-41
2021/12/18 05:32:00;;;;;;;;;;;6.60;99.90;;;;;;5073006;28;20125;-41
2021/12/18 05:34:33;;;;;;;;;;;6.60;99.90;;;;;;5074640;28;19928;-41
2021/12/18 05:39:45;;;;;;;;;;;6.60;99.90;;;;;;5075705;28;19924;-41
2021/12/18 05:42:13;;;;;;;;;;;6.60;99.90;;;;;;5071674;28;20008;-41
2021/12/18 05:44:40;;;;;;;;;;;6.60;99.90;;;;;;5073373;28;19924;-41
2021/12/18 05:47:06;;;;;;;;;;;6.70;99.90;;;;;;5074184;28;19950;-41
2021/12/18 05:49:33;;;;;;;;;;;6.70;99.90;;;;;;5072630;28;19924;-41
2021/12/18 05:52:00;;;;;;;;;;;6.70;99.90;;;;;;5069851;28;20033;-42
2021/12/18 05:54:27;;;;;;;;;;;6.60;99.90;;;;;;5073529;28;19924;-41
2021/12/18 05:56:53;;;;;;;;;;;6.70;99.90;;;;;;5070737;28;19925;-41
2021/12/18 05:59:22;;;;;;;;;;;6.70;99.90;;;;;;5069935;28;19972;-43
2021/12/18 06:01:48;;;;;;;;;;;6.70;99.90;;;;;;5072301;28;19935;-41
2021/12/18 06:04:15;;;;;;;;;;;6.70;99.90;;;;;;5072376;28;20277;-41
2021/12/18 06:06:42;;;;;;;;;;;6.70;99.90;;;;;;5074160;28;20291;-41
2021/12/18 06:09:10;;;;;;;;;;;6.70;99.90;;;;;;5061972;28;19931;-42
2021/12/18 06:11:38;;;;;;;;;;;6.70;99.90;;;;;;5069350;28;19924;-41
2021/12/18 06:14:05;;;;;;;;;;;6.70;99.90;;;;;;5069660;28;20011;-41
2021/12/18 06:16:33;;;;;;;;;;;6.70;99.90;;;;;;5073432;28;19924;-41
2021/12/18 06:19:00;;;;;;;;;;;6.70;99.90;;;;;;5071953;28;20386;-41
2021/12/18 06:21:27;;;;;;;;;;;6.70;99.90;;;;;;5072798;28;19929;-41
2021/12/18 06:23:54;;;;;;;;;;;6.70;99.90;;;;;;5083813;28;19924;-41
2021/12/18 06:26:21;;;;;;;;;;;6.70;99.90;;;;;;5072487;28;19928;-41
2021/12/18 06:28:47;;;;;;;;;;;6.70;99.90;;;;;;5072813;28;19986;-41
2021/12/18 06:31:14;;;;;;;;;;;6.70;99.90;;;;;;5072158;28;19978;-41
2021/12/18 06:33:42;;;;;;;;;;;6.70;99.90;;;;;;5072383;28;20007;-41
2021/12/18 06:36:09;;;;;;;;;;;6.70;99.90;;;;;;5073249;28;19925;-41
2021/12/18 06:38:36;;;;;;;;;;;6.80;99.90;;;;;;5072097;28;20340;-40
2021/12/18 06:41:02;;;;;;;;;;;6.70;99.90;;;;;;5071070;28;19970;-41
2021/12/18 06:43:29;;;;;;;;;;;6.80;99.90;;;;;;5071853;28;19935;-41
2021/12/18 06:45:56;;;;;;;;;;;6.80;99.90;;;;;;5071678;28;19977;-41
2021/12/18 06:48:23;;;;;;;;;;;6.80;99.90;;;;;;5073268;28;19924;-41
2021/12/18 06:50:51;;;;;;;;;;;6.80;99.90;;;;;;5073010;28;19925;-41
2021/12/18 06:53:18;;;;;;;;;;;6.80;99.90;;;;;;5071478;28;19925;-41
2021/12/18 06:55:45;;;;;;;;;;;6.80;99.90;;;;;;5071801;28;19986;-40
2021/12/18 06:58:12;;;;;;;;;;;6.80;99.90;;;;;;5072512;28;19925;-41
2021/12/18 07:00:38;;;;;;;;;;;6.90;99.90;;;;;;5072535;28;19924;-40
2021/12/18 07:03:05;;;;;;;;;;;6.80;99.90;;;;;;5071198;28;20019;-40
2021/12/18 07:05:32;;;;;;;;;;;6.90;99.90;;;;;;5071749;28;20333;-41
2021/12/18 07:08:00;;;;;;;;;;;6.80;99.90;;;;;;5072761;28;20463;-41
2021/12/18 07:10:30;;;;;;;;;;;6.90;99.90;;;;;;5071197;28;20139;-40
2021/12/18 07:12:57;;;;;;;;;;;6.90;99.90;;;;;;5070606;28;19972;-42
2021/12/18 07:15:23;;;;;;;;;;;6.90;99.90;;;;;;5072271;28;19939;-40
2021/12/18 07:17:50;;;;;;;;;;;6.90;99.90;;;;;;5072189;28;19978;-41
2021/12/18 07:20:17;;;;;;;;;;;6.90;99.90;;;;;;5071504;28;20019;-41
2021/12/18 07:22:44;;;;;;;;;;;6.90;99.90;;;;;;5071272;28;19924;-40
2021/12/18 07:25:12;;;;;;;;;;;6.90;99.90;;;;;;5070906;28;20458;-40
2021/12/18 07:27:39;;;;;;;;;;;6.90;99.90;;;;;;5072604;28;20015;-41
2021/12/18 07:30:07;;;;;;;;;;;6.90;99.90;;;;;;5072617;28;19971;-41
2021/12/18 07:32:34;;;;;;;;;;;6.90;99.90;;;;;;5069367;28;19955;-42
2021/12/18 07:35:01;;;;;;;;;;;6.90;99.90;;;;;;5071460;28;19955;-41
2021/12/18 07:37:28;;;;;;;;;;;6.90;99.90;;;;;;5072615;28;19924;-41
2021/12/18 07:39:55;;;;;;;;;;;7.00;99.90;;;;;;5067232;28;19968;-41
2021/12/18 07:42:23;;;;;;;;;;;6.90;99.90;;;;;;5052068;28;19935;-42
2021/12/18 07:44:49;;;;;;;;;;;7.00;99.90;;;;;;5072805;28;20380;-42
2021/12/18 07:47:16;;;;;;;;;;;6.90;99.90;;;;;;5071789;28;19976;-41
2021/12/18 07:49:43;;;;;;;;;;;7.00;99.90;;;;;;5072174;28;19924;-41
2021/12/18 07:52:10;;;;;;;;;;;7.00;99.90;;;;;;5072545;28;19935;-41
2021/12/18 07:54:37;;;;;;;;;;;7.00;99.90;;;;;;5070364;28;20335;-41
2021/12/18 07:57:04;;;;;;;;;;;6.90;99.90;;;;;;5072146;28;20376;-40
2021/12/18 07:59:32;;;;;;;;;;;7.00;99.90;;;;;;5071414;28;19998;-41
2021/12/18 08:02:00;;;;;;;;;;;7.00;99.90;;;;;;5072190;28;19925;-40
2021/12/18 08:04:27;;;;;;;;;;;7.00;99.90;;;;;;5066432;28;19972;-40
2021/12/18 08:06:54;;;;;;;;;;;7.10;99.90;;;;;;5071767;28;19975;-41
2021/12/18 08:09:21;;;;;;;;;;;7.10;99.90;;;;;;5060484;28;20287;-41
2021/12/18 08:11:47;;;;;;;;;;;7.10;99.90;;;;;;5068815;28;19972;-42
2021/12/18 08:14:14;;;;;;;;;;;7.10;99.90;;;;;;5071041;28;19959;-41
2021/12/18 08:16:42;;;;;;;;;;;7.10;99.90;;;;;;5073015;28;19990;-40
2021/12/18 08:19:09;;;;;;;;;;;7.20;99.90;;;;;;5058381;28;19928;-41
2021/12/18 08:21:36;;;;;;;;;;;7.10;99.90;;;;;;5062598;28;20234;-41
2021/12/18 08:24:03;;;;;;;;;;;7.20;99.90;;;;;;5085927;28;20018;-40
2021/12/18 08:26:30;;;;;;;;;;;7.20;99.90;;;;;;5075888;28;19935;-42
2021/12/18 08:28:56;;;;;;;;;;;7.20;99.90;;;;;;5075407;28;20431;-41
2021/12/18 08:31:23;;;;;;;;;;;7.20;99.90;;;;;;5073574;28;19932;-41
2021/12/18 08:33:51;;;;;;;;;;;7.20;99.90;;;;;;5067750;28;19979;-41
2021/12/18 08:36:18;;;;;;;;;;;7.20;99.90;;;;;;5075036;28;19947;-41
2021/12/18 08:38:45;;;;;;;;;;;7.20;99.90;;;;;;5067517;28;19994;-40
2021/12/18 08:41:11;;;;;;;;;;;7.20;99.90;;;;;;5073115;28;20032;-40
2021/12/18 08:43:38;;;;;;;;;;;7.30;99.90;;;;;;5068247;28;20396;-43
2021/12/18 08:46:05;;;;;;;;;;;7.30;99.90;;;;;;5055211;28;20459;-42
2021/12/18 08:48:32;;;;;;;;;;;7.30;99.90;;;;;;5067532;28;20045;-41
2021/12/18 08:51:00;;;;;;;;;;;7.30;99.90;;;;;;5069694;28;19931;-41
2021/12/18 08:53:27;;;;;;;;;;;7.40;99.90;;;;;;5073423;28;20014;-44
2021/12/18 08:55:53;;;;;;;;;;;7.40;99.90;;;;;;5073079;28;19986;-42
2021/12/18 08:58:20;;;;;;;;;;;7.40;99.90;;;;;;5073401;28;20427;-42
2021/12/18 09:00:47;;;;;;;;;;;7.40;99.90;;;;;;5074649;28;20340;-42
2021/12/18 09:03:14;;;;;;;;;;;7.40;99.90;;;;;;5072477;28;19998;-42
2021/12/18 09:05:41;;;;;;;;;;;7.40;99.90;;;;;;5072401;28;20452;-41
2021/12/18 09:08:09;;;;;;;;;;;7.50;99.90;;;;;;5071264;28;19971;-42
2021/12/18 09:10:36;;;;;;;;;;;7.50;99.90;;;;;;5069445;28;20063;-42
2021/12/18 09:13:03;;;;;;;;;;;7.50;99.90;;;;;;5066842;28;20376;-43
2021/12/18 09:15:30;;;;;;;;;;;7.50;99.90;;;;;;5074045;28;19930;-43
2021/12/18 09:17:56;;;;;;;;;;;7.50;99.90;;;;;;5085367;28;19937;-42
2021/12/18 09:20:23;;;;;;;;;;;7.60;99.90;;;;;;5071211;28;20021;-42
2021/12/18 09:22:50;;;;;;;;;;;7.60;99.90;;;;;;5071495;28;19924;-41
2021/12/18 09:25:18;;;;;;;;;;;7.60;99.90;;;;;;5072497;28;19932;-41
2021/12/18 09:27:45;;;;;;;;;;;7.60;99.90;;;;;;5072212;28;20304;-41
2021/12/18 09:30:13;;;;;;;;;;;7.70;99.90;;;;;;5074606;28;19925;-41
2021/12/18 09:32:40;;;;;;;;;;;7.70;99.90;;;;;;5074589;28;19978;-41
2021/12/18 09:35:08;;;;;;;;;;;7.70;99.90;;;;;;5072321;28;20293;-42
2021/12/18 09:37:34;;;;;;;;;;;7.70;99.90;;;;;;5104730;28;19924;-41
2021/12/18 09:40:01;;;;;;;;;;;7.80;99.90;;;;;;5069192;28;20207;-40
2021/12/18 09:42:29;;;;;;;;;;;7.80;99.90;;;;;;5070700;28;19924;-43
2021/12/18 09:44:56;;;;;;;;;;;7.80;99.90;;;;;;5067481;28;19968;-42
2021/12/18 09:47:23;;;;;;;;;;;7.80;99.90;;;;;;5065133;28;20290;-42
2021/12/18 09:49:50;;;;;;;;;;;7.80;99.90;;;;;;5065953;28;19968;-43
2021/12/18 09:52:16;;;;;;;;;;;7.90;99.90;;;;;;5065880;28;19952;-43
2021/12/18 09:54:43;;;;;;;;;;;7.90;99.90;;;;;;5066672;28;20396;-43
2021/12/18 09:57:10;;;;;;;;;;;8.00;99.90;;;;;;5073451;28;19946;-42
2021/12/18 09:59:38;;;;;;;;;;;8.00;99.90;;;;;;5071095;28;19939;-43
2021/12/18 10:02:05;;;;;;;;;;;8.00;99.90;;;;;;5070807;28;19975;-41
2021/12/18 10:04:32;;;;;;;;;;;8.10;99.90;;;;;;5072510;28;19932;-41
2021/12/18 10:06:59;;;;;;;;;;;8.10;99.90;;;;;;5072182;28;19924;-42
2021/12/18 10:09:33;;;;;;;;;;;8.20;99.90;;;;;;5067701;28;20312;-41
2021/12/18 10:12:00;;;;;;;;;;;8.10;99.90;;;;;;5071509;28;19987;-42
2021/12/18 10:14:32;;;;;;;;;;;8.20;99.90;;;;;;5073621;28;19925;-43
2021/12/18 10:17:00;;;;;;;;;;;8.20;99.90;;;;;;5067156;28;20046;-42
2021/12/18 10:19:28;;;;;;;;;;;8.20;99.90;;;;;;5064300;28;20024;-43
2021/12/18 10:21:56;;;;;;;;;;;8.30;99.90;;;;;;5067290;28;19924;-43
2021/12/18 10:24:22;;;;;;;;;;;8.30;99.90;;;;;;5067190;28;20318;-45
2021/12/18 10:26:49;;;;;;;;;;;8.40;99.90;;;;;;5100988;28;19924;-42
2021/12/18 10:29:26;;;;;;;;;;;8.40;99.90;;;;;;5070952;28;21178;-42
2021/12/18 10:31:53;;;;;;;;;;;8.40;99.90;;;;;;5070698;28;20012;-41
2021/12/18 10:34:22;;;;;;;;;;;8.50;99.90;;;;;;5070393;28;19924;-42
2021/12/18 10:37:07;;;;;;;;;;;8.50;99.90;;;;;;5071901;28;20010;-42
2021/12/18 10:39:34;;;;;;;;;;;8.50;99.90;;;;;;5070310;28;19924;-43
2021/12/18 10:42:06;;;;;;;;;;;8.60;99.90;;;;;;5072486;28;20270;-42
2021/12/18 10:44:33;;;;;;;;;;;8.60;99.90;;;;;;5071768;28;19928;-42
2021/12/18 10:46:59;;;;;;;;;;;8.60;99.90;;;;;;5072153;28;20001;-43
2021/12/18 10:49:27;;;;;;;;;;;8.60;99.90;;;;;;5069790;28;19970;-42
2021/12/18 10:51:56;;;;;;;;;;;8.60;99.90;;;;;;5070557;28;20019;-43
2021/12/18 10:54:23;;;;;;;;;;;8.60;99.90;;;;;;5069887;28;19935;-41
2021/12/18 10:56:51;;;;;;;;;;;8.70;99.90;;;;;;5070693;28;19976;-43
2021/12/18 10:59:21;;;;;;;;;;;8.60;99.90;;;;;;5069413;28;19936;-45
2021/12/18 11:01:51;;;;;;;;;;;8.70;99.90;;;;;;5064793;28;19972;-43
2021/12/18 11:04:22;;;;;;;;;;;8.70;99.90;;;;;;5071267;28;20651;-42
2021/12/18 11:06:50;;;;;;;;;;;8.70;99.90;;;;;;5071376;28;19956;-43
2021/12/18 11:09:25;;;;;;;;;;;8.70;99.90;;;;;;5065716;28;19986;-41
2021/12/18 11:14:37;;;;;;;;;;;8.70;99.90;;;;;;5063421;28;20305;-42
2021/12/18 11:17:04;;;;;;;;;;;8.80;99.90;;;;;;5065578;28;19932;-43
2021/12/18 11:19:31;;;;;;;;;;;8.80;99.90;;;;;;5066017;28;19931;-43
2021/12/18 11:22:00;;;;;;;;;;;8.80;99.90;;;;;;5067579;28;20355;-43
2021/12/18 11:24:29;;;;;;;;;;;8.80;99.90;;;;;;5066101;28;19925;-44
2021/12/18 11:26:57;;;;;;;;;;;8.80;99.90;;;;;;5069595;28;19928;-42
2021/12/18 11:29:24;;;;;;;;;;;8.80;99.90;;;;;;5070434;28;19971;-44
2021/12/18 11:31:51;;;;;;;;;;;8.80;99.90;;;;;;5068979;28;19924;-42
2021/12/18 11:34:18;;;;;;;;;;;8.80;99.90;;;;;;5071391;28;19980;-44
2021/12/18 11:36:45;;;;;;;;;;;8.80;99.90;;;;;;5074830;28;19924;-42
2021/12/18 11:39:14;;;;;;;;;;;8.80;99.90;;;;;;5073160;28;19993;-42
2021/12/18 11:41:40;;;;;;;;;;;8.90;99.90;;;;;;5072043;28;19924;-44
2021/12/18 11:44:26;;;;;;;;;;;8.80;99.90;;;;;;5074839;28;19972;-43
2021/12/18 11:46:53;;;;;;;;;;;8.90;99.90;;;;;;5075410;28;19932;-42
2021/12/18 11:49:21;;;;;;;;;;;8.90;99.90;;;;;;5088137;28;19924;-43
2021/12/18 11:51:58;;;;;;;;;;;8.90;99.90;;;;;;5090471;28;20394;-44
2021/12/18 11:54:40;;;;;;;;;;;8.90;99.90;;;;;;5078755;28;19928;-44
2021/12/18 11:57:07;;;;;;;;;;;8.90;99.90;;;;;;5066186;28;20015;-46
2021/12/18 11:59:37;;;;;;;;;;;8.90;99.90;;;;;;5069874;28;19929;-43
2021/12/18 12:02:04;;;;;;;;;;;8.90;99.90;;;;;;5068717;28;19929;-39
2021/12/18 12:04:45;;;;;;;;;;;8.90;99.90;;;;;;5072269;28;19924;-40
2021/12/18 12:07:20;;;;;;;;;;;8.90;99.90;;;;;;5079147;28;19930;-41
2021/12/18 12:10:05;;;;;;;;;;;9.00;99.90;;;;;;5075553;28;19929;-40
2021/12/18 12:12:51;;;;;;;;;;;9.00;99.90;;;;;;5078043;28;19939;-41
2021/12/18 12:15:18;;;;;;;;;;;9.00;99.90;;;;;;5074407;28;20003;-42
2021/12/18 12:17:53;;;;;;;;;;;9.00;99.90;;;;;;5073693;28;19925;-40
2021/12/18 12:20:31;;;;;;;;;;;9.00;99.90;;;;;;5105182;27;19925;-42
2021/12/18 12:23:00;;;;;;;;;;;8.90;99.90;;;;;;5074268;28;19971;-40
2021/12/18 12:25:35;;;;;;;;;;;8.90;99.90;;;;;;5073343;28;19925;-40
2021/12/18 12:28:03;;;;;;;;;;;8.90;99.90;;;;;;5078670;28;19978;-44
2021/12/18 12:30:31;;;;;;;;;;;8.80;99.90;;;;;;5074722;28;19963;-39
2021/12/18 12:33:04;;;;;;;;;;;8.90;99.90;;;;;;5073030;28;19977;-39
2021/12/18 12:35:30;;;;;;;;;;;8.90;99.90;;;;;;5070743;28;19931;-39
2021/12/18 12:37:57;;;;;;;;;;;8.90;99.90;;;;;;5072096;28;19925;-40
2021/12/18 12:40:33;;;;;;;;;;;8.90;99.90;;;;;;5070846;28;19924;-39
2021/12/18 12:43:20;;;;;;;;;;;8.90;99.90;;;;;;5074289;28;20019;-40
2021/12/18 12:45:49;;;;;;;;;;;8.90;99.90;;;;;;5070991;28;19924;-40
2021/12/18 12:48:17;;;;;;;;;;;8.90;99.90;;;;;;5073054;28;19925;-40
2021/12/18 12:50:44;;;;;;;;;;;8.90;99.90;;;;;;5072286;28;19932;-40
2021/12/18 12:53:11;;;;;;;;;;;9.00;99.90;;;;;;5073722;28;19928;-40
2021/12/18 12:55:41;;;;;;;;;;;8.90;99.90;;;;;;5070035;28;20350;-42
2021/12/18 12:58:17;;;;;;;;;;;8.90;99.90;;;;;;5067196;28;20340;-40
2021/12/18 13:00:44;;;;;;;;;;;8.90;99.90;;;;;;5072059;28;20368;-40
2021/12/18 13:03:13;;;;;;;;;;;9.00;99.90;;;;;;5074647;28;19925;-39
2021/12/18 13:05:50;;;;;;;;;;;8.90;99.90;;;;;;5074121;28;19924;-40
2021/12/18 13:08:17;;;;;;;;;;;8.90;99.90;;;;;;5069888;28;19936;-39
2021/12/18 13:10:46;;;;;;;;;;;9.00;99.90;;;;;;5100687;28;20441;-41
2021/12/18 13:13:13;;;;;;;;;;;8.90;99.90;;;;;;5073967;28;19925;-40
2021/12/18 13:15:48;;;;;;;;;;;9.00;99.90;;;;;;5069787;28;19951;-40
2021/12/18 13:18:14;;;;;;;;;;;9.00;99.90;;;;;;5065898;28;19924;-41
2021/12/18 13:20:42;;;;;;;;;;;9.00;99.90;;;;;;5069637;28;20047;-39
2021/12/18 13:23:09;;;;;;;;;;;9.00;99.90;;;;;;5071731;28;20015;-39
2021/12/18 13:25:46;;;;;;;;;;;9.00;99.90;;;;;;5070189;28;20404;-41
2021/12/18 13:28:12;;;;;;;;;;;9.00;99.90;;;;;;5065198;28;19925;-43
2021/12/18 13:30:41;;;;;;;;;;;9.00;99.90;;;;;;5088814;28;20380;-42
2021/12/18 13:33:09;;;;;;;;;;;9.00;99.90;;;;;;5062497;28;20365;-40
2021/12/18 13:35:36;;;;;;;;;;;9.00;99.90;;;;;;5063504;28;19925;-41
2021/12/18 13:38:04;;;;;;;;;;;9.00;99.90;;;;;;5054141;28;20316;-42
2021/12/18 13:40:31;;;;;;;;;;;8.90;99.90;;;;;;5064996;28;20376;-41
2021/12/18 13:43:05;;;;;;;;;;;8.90;99.90;;;;;;5068477;28;20023;-40
2021/12/18 13:45:32;;;;;;;;;;;8.90;99.90;;;;;;5063824;28;19924;-40
2021/12/18 13:48:02;;;;;;;;;;;8.90;99.90;;;;;;5089932;28;20224;-40
2021/12/18 13:50:30;;;;;;;;;;;9.00;99.90;;;;;;5075142;28;19970;-40
2021/12/18 13:52:57;;;;;;;;;;;8.90;99.90;;;;;;5070143;28;19931;-40
2021/12/18 13:55:26;;;;;;;;;;;8.90;99.90;;;;;;5071932;28;20384;-39
2021/12/18 13:58:00;;;;;;;;;;;8.90;99.90;;;;;;5072306;28;19924;-40
2021/12/18 14:00:27;;;;;;;;;;;8.90;99.90;;;;;;5072610;28;19931;-40
2021/12/18 14:02:53;;;;;;;;;;;8.90;99.90;;;;;;5072351;28;19979;-40
2021/12/18 14:05:20;;;;;;;;;;;8.90;99.90;;;;;;5070713;28;19975;-39
2021/12/18 14:07:48;;;;;;;;;;;8.90;99.90;;;;;;5071183;28;19924;-41
2021/12/18 14:10:15;;;;;;;;;;;8.90;99.90;;;;;;5070382;28;20003;-40
2021/12/18 14:12:42;;;;;;;;;;;8.80;99.90;;;;;;5072936;28;20285;-40
2021/12/18 14:15:17;;;;;;;;;;;8.80;99.90;;;;;;5104241;28;19935;-40
2021/12/18 14:17:44;;;;;;;;;;;8.80;99.90;;;;;;5071105;28;20030;-40
2021/12/18 14:20:11;;;;;;;;;;;8.80;99.90;;;;;;5068664;28;19925;-41
2021/12/18 14:22:38;;;;;;;;;;;8.80;99.90;;;;;;5070751;28;19924;-41
2021/12/18 14:25:06;;;;;;;;;;;8.80;99.90;;;;;;5065943;28;19932;-40
2021/12/18 14:27:40;;;;;;;;;;;8.80;99.90;;;;;;5064876;28;19928;-39
2021/12/18 14:30:17;;;;;;;;;;;8.80;99.90;;;;;;5069278;28;20019;-39
2021/12/18 14:32:46;;;;;;;;;;;8.80;99.90;;;;;;5066808;28;19924;-40
2021/12/18 14:35:14;;;;;;;;;;;8.80;99.90;;;;;;5066600;28;20011;-40
2021/12/18 14:37:51;;;;;;;;;;;8.80;99.90;;;;;;5061389;28;19930;-39
2021/12/18 14:40:20;;;;;;;;;;;8.80;99.90;;;;;;5070692;28;19928;-40
2021/12/18 14:42:54;;;;;;;;;;;8.80;99.90;;;;;;5068207;28;19928;-40
2021/12/18 14:45:21;;;;;;;;;;;8.80;99.90;;;;;;5070846;28;20012;-39
2021/12/18 14:47:48;;;;;;;;;;;8.80;99.90;;;;;;5067939;28;19978;-40
2021/12/18 14:50:16;;;;;;;;;;;8.80;99.90;;;;;;5056406;28;19932;-39
2021/12/18 14:52:53;;;;;;;;;;;8.80;99.90;;;;;;5069737;28;19924;-40
2021/12/18 14:55:22;;;;;;;;;;;8.80;99.90;;;;;;5082358;28;20388;-39
2021/12/18 14:57:52;;;;;;;;;;;8.80;99.90;;;;;;5070427;28;20015;-40
2021/12/18 15:00:21;;;;;;;;;;;8.70;99.90;;;;;;5070908;28;20407;-39
2021/12/18 15:02:55;;;;;;;;;;;8.70;99.90;;;;;;5068423;28;19924;-40
2021/12/18 15:05:21;;;;;;;;;;;8.70;99.90;;;;;;5068093;28;20434;-42
2021/12/18 15:07:56;;;;;;;;;;;8.70;99.90;;;;;;5069465;28;20402;-39
2021/12/18 15:10:24;;;;;;;;;;;8.70;99.90;;;;;;5084121;28;19974;-39
2021/12/18 15:12:51;;;;;;;;;;;8.70;99.90;;;;;;5081351;28;20473;-40
2021/12/18 15:15:18;;;;;;;;;;;8.70;99.90;;;;;;5066726;28;19925;-42
2021/12/18 15:17:44;;;;;;;;;;;8.70;99.90;;;;;;5068155;28;19928;-40